sensor_id;sensor_type;location;lat;lon;timestamp;pressure;altitude;pressure_sealevel;temperature;humidity
31681;BME280;18281;51.364;9.566;2023-07-31T00:01:18;99567.22;;;14.66;100.00
31681;BME280;18281;51.364;9.566;2023-07-31T00:03:43;99582.84;;;14.58;100.00
31681;BME280;18281;51.364;9.566;2023-07-31T00:06:09;99565.44;;;14.67;100.00
31681;BME280;18281;51.364;9.566;2023-07-31T00:08:34;99565.53;;;14.76;100.00
31681;BME280;18281;51.364;9.566;2023-07-31T00:10:59;99571.91;;;14.74;100.00
31681;BME280;18281;51.364;9.566;2023-07-31T00:13:24;99560.28;;;14.65;100.00
31681;BME280;18281;51.364;9.566;2023-07-31T00:15:50;99562.94;;;14.54;100.00
31681;BME280;18281;51.364;9.566;2023-07-31T00:18:15;99556.94;;;14.52;100.00
31681;BME280;18281;51.364;9.566;2023-07-31T00:20:40;99552.50;;;14.52;100.00
31681;BME280;18281;51.364;9.566;2023-07-31T00:23:05;99558.59;;;14.53;100.00
31681;BME280;18281;51.364;9.566;2023-07-31T00:25:31;99546.94;;;14.55;100.00
31681;BME280;18281;51.364;9.566;2023-07-31T00:27:56;99547.59;;;14.36;100.00
31681;BME280;18281;51.364;9.566;2023-07-31T00:30:21;99555.38;;;14.49;100.00
31681;BME280;18281;51.364;9.566;2023-07-31T00:32:47;99555.00;;;14.54;100.00
31681;BME280;18281;51.364;9.566;2023-07-31T00:35:12;99546.94;;;14.67;100.00
31681;BME280;18281;51.364;9.566;2023-07-31T00:37:38;99540.72;;;14.56;100.00
31681;BME280;18281;51.364;9.566;2023-07-31T00:40:03;99543.69;;;14.63;100.00
31681;BME280;18281;51.364;9.566;2023-07-31T00:42:28;99534.25;;;14.49;100.00
31681;BME280;18281;51.364;9.566;2023-07-31T00:44:54;99531.63;;;14.49;100.00
31681;BME280;18281;51.364;9.566;2023-07-31T00:47:19;99529.19;;;14.46;100.00
31681;BME280;18281;51.364;9.566;2023-07-31T00:49:44;99528.50;;;14.44;100.00
31681;BME280;18281;51.364;9.566;2023-07-31T00:52:10;99524.03;;;14.45;100.00
31681;BME280;18281;51.364;9.566;2023-07-31T00:54:35;99522.75;;;14.28;100.00
31681;BME280;18281;51.364;9.566;2023-07-31T00:57:01;99523.91;;;14.46;100.00
31681;BME280;18281;51.364;9.566;2023-07-31T00:59:27;99513.13;;;14.38;100.00
31681;BME280;18281;51.364;9.566;2023-07-31T01:01:52;99514.56;;;14.42;100.00
31681;BME280;18281;51.364;9.566;2023-07-31T01:04:17;99507.16;;;14.36;100.00
31681;BME280;18281;51.364;9.566;2023-07-31T01:12:00;99501.69;;;14.49;100.00
31681;BME280;18281;51.364;9.566;2023-07-31T01:14:26;99498.72;;;14.42;100.00
31681;BME280;18281;51.364;9.566;2023-07-31T01:16:51;99495.59;;;14.37;100.00
31681;BME280;18281;51.364;9.566;2023-07-31T01:19:17;99498.22;;;14.48;100.00
31681;BME280;18281;51.364;9.566;2023-07-31T01:21:57;99486.06;;;14.57;100.00
31681;BME280;18281;51.364;9.566;2023-07-31T01:27:28;99486.19;;;14.55;100.00
31681;BME280;18281;51.364;9.566;2023-07-31T01:32:40;99477.22;;;14.47;100.00
31681;BME280;18281;51.364;9.566;2023-07-31T01:35:07;99473.59;;;14.59;100.00
31681;BME280;18281;51.364;9.566;2023-07-31T01:37:33;99470.88;;;14.38;100.00
31681;BME280;18281;51.364;9.566;2023-07-31T01:39:58;99477.78;;;14.62;100.00
31681;BME280;18281;51.364;9.566;2023-07-31T01:42:23;99468.44;;;14.46;100.00
31681;BME280;18281;51.364;9.566;2023-07-31T01:44:49;99471.81;;;14.48;100.00
31681;BME280;18281;51.364;9.566;2023-07-31T01:47:14;99467.63;;;14.46;100.00
31681;BME280;18281;51.364;9.566;2023-07-31T01:49:39;99468.97;;;14.29;100.00
31681;BME280;18281;51.364;9.566;2023-07-31T01:52:05;99465.38;;;14.41;100.00
31681;BME280;18281;51.364;9.566;2023-07-31T01:54:30;99464.59;;;14.50;100.00
31681;BME280;18281;51.364;9.566;2023-07-31T01:56:55;99457.44;;;14.41;100.00
31681;BME280;18281;51.364;9.566;2023-07-31T01:59:21;99457.19;;;14.44;100.00
31681;BME280;18281;51.364;9.566;2023-07-31T02:01:46;99456.47;;;14.42;100.00
31681;BME280;18281;51.364;9.566;2023-07-31T02:04:11;99456.06;;;14.58;100.00
31681;BME280;18281;51.364;9.566;2023-07-31T02:06:38;99439.16;;;14.49;100.00
31681;BME280;18281;51.364;9.566;2023-07-31T02:09:03;99441.81;;;14.49;100.00
31681;BME280;18281;51.364;9.566;2023-07-31T02:11:28;99444.16;;;14.64;100.00
31681;BME280;18281;51.364;9.566;2023-07-31T02:13:53;99444.66;;;14.57;100.00
31681;BME280;18281;51.364;9.566;2023-07-31T02:16:19;99439.63;;;14.54;100.00
31681;BME280;18281;51.364;9.566;2023-07-31T02:18:44;99440.81;;;14.62;100.00
31681;BME280;18281;51.364;9.566;2023-07-31T02:21:09;99443.81;;;14.57;100.00
31681;BME280;18281;51.364;9.566;2023-07-31T02:23:34;99439.63;;;14.54;100.00
31681;BME280;18281;51.364;9.566;2023-07-31T02:26:00;99438.44;;;14.47;100.00
31681;BME280;18281;51.364;9.566;2023-07-31T02:28:25;99439.78;;;14.41;100.00
31681;BME280;18281;51.364;9.566;2023-07-31T02:30:50;99437.91;;;14.65;100.00
31681;BME280;18281;51.364;9.566;2023-07-31T02:33:16;99426.03;;;14.26;100.00
31681;BME280;18281;51.364;9.566;2023-07-31T02:35:41;99445.03;;;14.53;100.00
31681;BME280;18281;51.364;9.566;2023-07-31T02:38:06;99443.94;;;14.55;100.00
31681;BME280;18281;51.364;9.566;2023-07-31T02:40:32;99435.09;;;14.45;100.00
31681;BME280;18281;51.364;9.566;2023-07-31T02:42:57;99440.22;;;14.58;100.00
31681;BME280;18281;51.364;9.566;2023-07-31T02:45:22;99447.78;;;14.51;100.00
31681;BME280;18281;51.364;9.566;2023-07-31T02:47:48;99443.09;;;14.55;100.00
31681;BME280;18281;51.364;9.566;2023-07-31T02:50:13;99443.78;;;14.36;100.00
31681;BME280;18281;51.364;9.566;2023-07-31T02:52:38;99447.09;;;14.49;100.00
31681;BME280;18281;51.364;9.566;2023-07-31T02:55:03;99446.88;;;14.41;100.00
31681;BME280;18281;51.364;9.566;2023-07-31T02:57:29;99439.06;;;14.39;100.00
31681;BME280;18281;51.364;9.566;2023-07-31T02:59:54;99446.63;;;14.44;100.00
31681;BME280;18281;51.364;9.566;2023-07-31T03:02:19;99446.06;;;14.29;100.00
31681;BME280;18281;51.364;9.566;2023-07-31T03:04:44;99451.19;;;14.42;100.00
31681;BME280;18281;51.364;9.566;2023-07-31T03:07:10;99449.72;;;14.49;100.00
31681;BME280;18281;51.364;9.566;2023-07-31T03:09:35;99447.72;;;14.30;100.00
31681;BME280;18281;51.364;9.566;2023-07-31T03:12:00;99452.91;;;14.20;100.00
31681;BME280;18281;51.364;9.566;2023-07-31T03:14:26;99451.53;;;14.49;100.00
31681;BME280;18281;51.364;9.566;2023-07-31T03:16:51;99450.47;;;14.40;100.00
31681;BME280;18281;51.364;9.566;2023-07-31T03:19:17;99445.41;;;14.48;100.00
31681;BME280;18281;51.364;9.566;2023-07-31T03:21:42;99443.97;;;14.44;100.00
31681;BME280;18281;51.364;9.566;2023-07-31T03:24:07;99436.53;;;14.49;100.00
31681;BME280;18281;51.364;9.566;2023-07-31T03:26:32;99442.78;;;14.37;100.00
31681;BME280;18281;51.364;9.566;2023-07-31T03:28:58;99426.84;;;14.38;100.00
31681;BME280;18281;51.364;9.566;2023-07-31T03:31:23;99435.59;;;14.39;100.00
31681;BME280;18281;51.364;9.566;2023-07-31T03:33:48;99435.00;;;14.35;100.00
31681;BME280;18281;51.364;9.566;2023-07-31T03:36:13;99425.06;;;14.28;100.00
31681;BME280;18281;51.364;9.566;2023-07-31T03:38:39;99419.41;;;14.32;100.00
31681;BME280;18281;51.364;9.566;2023-07-31T03:41:04;99424.41;;;14.47;100.00
31681;BME280;18281;51.364;9.566;2023-07-31T03:43:31;99418.09;;;14.26;100.00
31681;BME280;18281;51.364;9.566;2023-07-31T03:45:56;99418.56;;;14.32;100.00
31681;BME280;18281;51.364;9.566;2023-07-31T03:48:21;99421.22;;;14.32;100.00
31681;BME280;18281;51.364;9.566;2023-07-31T03:50:47;99428.06;;;14.34;100.00
31681;BME280;18281;51.364;9.566;2023-07-31T03:53:12;99427.94;;;14.36;100.00
31681;BME280;18281;51.364;9.566;2023-07-31T03:55:37;99431.31;;;14.59;100.00
31681;BME280;18281;51.364;9.566;2023-07-31T03:58:02;99425.03;;;14.39;100.00
31681;BME280;18281;51.364;9.566;2023-07-31T04:00:28;99412.44;;;14.42;100.00
31681;BME280;18281;51.364;9.566;2023-07-31T04:02:53;99421.16;;;14.54;100.00
31681;BME280;18281;51.364;9.566;2023-07-31T04:05:18;99413.63;;;14.38;100.00
31681;BME280;18281;51.364;9.566;2023-07-31T04:07:43;99416.97;;;14.40;100.00
31681;BME280;18281;51.364;9.566;2023-07-31T04:10:09;99415.75;;;14.45;100.00
31681;BME280;18281;51.364;9.566;2023-07-31T04:12:34;99416.34;;;14.48;100.00
31681;BME280;18281;51.364;9.566;2023-07-31T04:14:59;99418.94;;;14.27;100.00
31681;BME280;18281;51.364;9.566;2023-07-31T04:17:25;99426.31;;;14.56;100.00
31681;BME280;18281;51.364;9.566;2023-07-31T04:19:50;99424.16;;;14.50;100.00
31681;BME280;18281;51.364;9.566;2023-07-31T04:22:15;99419.00;;;14.48;100.00
31681;BME280;18281;51.364;9.566;2023-07-31T04:24:40;99417.28;;;14.58;100.00
31681;BME280;18281;51.364;9.566;2023-07-31T04:27:06;99424.28;;;14.37;100.00
31681;BME280;18281;51.364;9.566;2023-07-31T04:29:31;99426.31;;;14.45;100.00
31681;BME280;18281;51.364;9.566;2023-07-31T04:31:56;99416.50;;;14.47;100.00
31681;BME280;18281;51.364;9.566;2023-07-31T04:34:21;99420.69;;;14.49;100.00
31681;BME280;18281;51.364;9.566;2023-07-31T04:36:46;99433.69;;;14.41;100.00
31681;BME280;18281;51.364;9.566;2023-07-31T04:39:12;99434.84;;;14.48;100.00
31681;BME280;18281;51.364;9.566;2023-07-31T04:41:37;99434.84;;;14.48;100.00
31681;BME280;18281;51.364;9.566;2023-07-31T04:44:02;99440.13;;;14.48;100.00
31681;BME280;18281;51.364;9.566;2023-07-31T04:46:29;99435.19;;;14.55;100.00
31681;BME280;18281;51.364;9.566;2023-07-31T04:48:54;99444.06;;;14.54;100.00
31681;BME280;18281;51.364;9.566;2023-07-31T04:51:19;99436.75;;;14.46;100.00
31681;BME280;18281;51.364;9.566;2023-07-31T04:53:46;99431.72;;;14.54;100.00
31681;BME280;18281;51.364;9.566;2023-07-31T04:56:11;99441.13;;;14.36;100.00
31681;BME280;18281;51.364;9.566;2023-07-31T04:58:36;99437.09;;;14.53;100.00
31681;BME280;18281;51.364;9.566;2023-07-31T05:01:01;99432.41;;;14.56;100.00
31681;BME280;18281;51.364;9.566;2023-07-31T05:03:27;99432.81;;;14.52;100.00
31681;BME280;18281;51.364;9.566;2023-07-31T05:05:52;99434.13;;;14.46;100.00
31681;BME280;18281;51.364;9.566;2023-07-31T05:08:17;99429.50;;;14.59;100.00
31681;BME280;18281;51.364;9.566;2023-07-31T05:10:42;99433.00;;;14.60;100.00
31681;BME280;18281;51.364;9.566;2023-07-31T05:13:08;99422.09;;;14.53;100.00
31681;BME280;18281;51.364;9.566;2023-07-31T05:15:33;99427.38;;;14.53;100.00
31681;BME280;18281;51.364;9.566;2023-07-31T05:17:58;99422.31;;;14.62;100.00
31681;BME280;18281;51.364;9.566;2023-07-31T05:20:23;99425.56;;;14.65;100.00
31681;BME280;18281;51.364;9.566;2023-07-31T05:22:49;99427.88;;;14.47;100.00
31681;BME280;18281;51.364;9.566;2023-07-31T05:25:15;99422.19;;;14.63;100.00
31681;BME280;18281;51.364;9.566;2023-07-31T05:27:40;99425.56;;;14.54;100.00
31681;BME280;18281;51.364;9.566;2023-07-31T05:30:06;99430.56;;;14.68;100.00
31681;BME280;18281;51.364;9.566;2023-07-31T05:32:32;99426.63;;;14.63;100.00
31681;BME280;18281;51.364;9.566;2023-07-31T05:34:57;99429.75;;;14.68;100.00
31681;BME280;18281;51.364;9.566;2023-07-31T05:37:22;99427.84;;;14.58;100.00
31681;BME280;18281;51.364;9.566;2023-07-31T05:39:47;99428.28;;;14.64;100.00
31681;BME280;18281;51.364;9.566;2023-07-31T05:42:13;99428.06;;;14.67;100.00
31681;BME280;18281;51.364;9.566;2023-07-31T05:44:38;99418.88;;;14.82;100.00
31681;BME280;18281;51.364;9.566;2023-07-31T05:47:04;99431.16;;;15.04;100.00
31681;BME280;18281;51.364;9.566;2023-07-31T05:49:29;99426.78;;;15.15;100.00
31681;BME280;18281;51.364;9.566;2023-07-31T05:51:55;99417.72;;;15.17;100.00
31681;BME280;18281;51.364;9.566;2023-07-31T05:54:20;99419.59;;;15.26;100.00
31681;BME280;18281;51.364;9.566;2023-07-31T05:56:45;99417.66;;;15.29;100.00
31681;BME280;18281;51.364;9.566;2023-07-31T05:59:12;99420.13;;;15.20;100.00
31681;BME280;18281;51.364;9.566;2023-07-31T06:01:37;99422.59;;;15.12;100.00
31681;BME280;18281;51.364;9.566;2023-07-31T06:04:02;99416.22;;;15.15;100.00
31681;BME280;18281;51.364;9.566;2023-07-31T06:06:28;99423.22;;;15.25;100.00
31681;BME280;18281;51.364;9.566;2023-07-31T06:08:53;99423.81;;;15.08;100.00
31681;BME280;18281;51.364;9.566;2023-07-31T06:11:19;99424.88;;;15.26;100.00
31681;BME280;18281;51.364;9.566;2023-07-31T06:13:45;99429.66;;;15.12;100.00
31681;BME280;18281;51.364;9.566;2023-07-31T06:16:11;99417.50;;;15.20;100.00
31681;BME280;18281;51.364;9.566;2023-07-31T06:18:37;99423.13;;;15.37;100.00
31681;BME280;18281;51.364;9.566;2023-07-31T06:21:02;99434.03;;;15.22;100.00
31681;BME280;18281;51.364;9.566;2023-07-31T06:23:27;99448.69;;;15.26;100.00
31681;BME280;18281;51.364;9.566;2023-07-31T06:25:52;99436.88;;;15.31;100.00
31681;BME280;18281;51.364;9.566;2023-07-31T06:28:18;99447.72;;;15.27;100.00
31681;BME280;18281;51.364;9.566;2023-07-31T06:30:43;99455.66;;;15.27;100.00
31681;BME280;18281;51.364;9.566;2023-07-31T06:33:08;99442.25;;;15.19;100.00
31681;BME280;18281;51.364;9.566;2023-07-31T06:35:34;99440.66;;;15.28;100.00
31681;BME280;18281;51.364;9.566;2023-07-31T06:37:59;99437.16;;;15.27;100.00
31681;BME280;18281;51.364;9.566;2023-07-31T06:40:24;99432.56;;;15.30;100.00
31681;BME280;18281;51.364;9.566;2023-07-31T06:42:49;99431.22;;;15.35;100.00
31681;BME280;18281;51.364;9.566;2023-07-31T06:45:15;99424.66;;;15.30;100.00
31681;BME280;18281;51.364;9.566;2023-07-31T06:47:40;99421.94;;;15.51;100.00
31681;BME280;18281;51.364;9.566;2023-07-31T06:50:05;99415.09;;;15.17;100.00
31681;BME280;18281;51.364;9.566;2023-07-31T06:52:31;99421.63;;;15.44;100.00
31681;BME280;18281;51.364;9.566;2023-07-31T06:57:40;99416.34;;;15.44;100.00
31681;BME280;18281;51.364;9.566;2023-07-31T07:00:05;99420.28;;;15.50;100.00
31681;BME280;18281;51.364;9.566;2023-07-31T07:02:30;99416.16;;;15.36;100.00
31681;BME280;18281;51.364;9.566;2023-07-31T07:04:56;99420.38;;;15.17;100.00
31681;BME280;18281;51.364;9.566;2023-07-31T07:07:21;99416.31;;;15.13;100.00
31681;BME280;18281;51.364;9.566;2023-07-31T07:09:46;99420.31;;;15.07;100.00
31681;BME280;18281;51.364;9.566;2023-07-31T07:12:12;99412.38;;;14.86;100.00
31681;BME280;18281;51.364;9.566;2023-07-31T07:14:37;99408.50;;;14.90;100.00
31681;BME280;18281;51.364;9.566;2023-07-31T07:17:02;99409.69;;;14.98;100.00
31681;BME280;18281;51.364;9.566;2023-07-31T07:19:27;99412.53;;;14.73;100.00
31681;BME280;18281;51.364;9.566;2023-07-31T07:21:52;99411.75;;;14.62;100.00
31681;BME280;18281;51.364;9.566;2023-07-31T07:24:18;99411.47;;;14.97;100.00
31681;BME280;18281;51.364;9.566;2023-07-31T07:26:43;99409.78;;;15.17;100.00
31681;BME280;18281;51.364;9.566;2023-07-31T07:29:08;99410.00;;;15.25;100.00
31681;BME280;18281;51.364;9.566;2023-07-31T07:31:35;99410.78;;;14.95;100.00
31681;BME280;18281;51.364;9.566;2023-07-31T07:34:01;99411.25;;;15.00;100.00
31681;BME280;18281;51.364;9.566;2023-07-31T07:36:27;99404.66;;;14.95;100.00
31681;BME280;18281;51.364;9.566;2023-07-31T07:38:53;99404.91;;;14.91;100.00
31681;BME280;18281;51.364;9.566;2023-07-31T07:41:18;99397.97;;;14.79;100.00
31681;BME280;18281;51.364;9.566;2023-07-31T07:43:43;99397.06;;;14.69;100.00
31681;BME280;18281;51.364;9.566;2023-07-31T07:46:08;99398.94;;;14.89;100.00
31681;BME280;18281;51.364;9.566;2023-07-31T07:48:33;99391.13;;;14.76;100.00
31681;BME280;18281;51.364;9.566;2023-07-31T07:50:59;99393.44;;;14.81;100.00
31681;BME280;18281;51.364;9.566;2023-07-31T07:53:24;99390.34;;;14.65;100.00
31681;BME280;18281;51.364;9.566;2023-07-31T07:55:49;99390.16;;;14.56;100.00
31681;BME280;18281;51.364;9.566;2023-07-31T07:58:15;99384.53;;;14.82;100.00
31681;BME280;18281;51.364;9.566;2023-07-31T08:00:40;99386.41;;;14.91;100.00
31681;BME280;18281;51.364;9.566;2023-07-31T08:03:05;99381.06;;;15.03;100.00
31681;BME280;18281;51.364;9.566;2023-07-31T08:05:31;99371.91;;;15.07;100.00
31681;BME280;18281;51.364;9.566;2023-07-31T08:07:59;99365.72;;;14.97;100.00
31681;BME280;18281;51.364;9.566;2023-07-31T08:10:24;99362.56;;;15.03;100.00
31681;BME280;18281;51.364;9.566;2023-07-31T08:12:49;99367.59;;;15.06;100.00
31681;BME280;18281;51.364;9.566;2023-07-31T08:15:15;99360.38;;;15.08;100.00
31681;BME280;18281;51.364;9.566;2023-07-31T08:17:40;99368.16;;;14.88;100.00
31681;BME280;18281;51.364;9.566;2023-07-31T08:20:06;99353.72;;;15.14;100.00
31681;BME280;18281;51.364;9.566;2023-07-31T08:22:31;99358.88;;;15.15;100.00
31681;BME280;18281;51.364;9.566;2023-07-31T08:24:56;99356.69;;;15.20;100.00
31681;BME280;18281;51.364;9.566;2023-07-31T08:27:22;99352.66;;;15.26;100.00
31681;BME280;18281;51.364;9.566;2023-07-31T08:29:47;99343.63;;;15.29;100.00
31681;BME280;18281;51.364;9.566;2023-07-31T08:32:12;99349.53;;;15.11;100.00
31681;BME280;18281;51.364;9.566;2023-07-31T08:34:38;99345.97;;;15.22;100.00
31681;BME280;18281;51.364;9.566;2023-07-31T08:37:03;99356.03;;;15.28;100.00
31681;BME280;18281;51.364;9.566;2023-07-31T08:39:28;99362.09;;;15.19;100.00
31681;BME280;18281;51.364;9.566;2023-07-31T08:41:57;99358.66;;;15.28;100.00
31681;BME280;18281;51.364;9.566;2023-07-31T08:44:22;99359.28;;;15.41;100.00
31681;BME280;18281;51.364;9.566;2023-07-31T08:46:49;99365.41;;;15.42;100.00
31681;BME280;18281;51.364;9.566;2023-07-31T08:49:15;99364.28;;;15.35;100.00
31681;BME280;18281;51.364;9.566;2023-07-31T08:51:42;99361.22;;;15.39;100.00
31681;BME280;18281;51.364;9.566;2023-07-31T08:54:07;99366.31;;;15.31;100.00
31681;BME280;18281;51.364;9.566;2023-07-31T08:56:33;99364.94;;;15.37;100.00
31681;BME280;18281;51.364;9.566;2023-07-31T08:58:59;99371.75;;;15.30;100.00
31681;BME280;18281;51.364;9.566;2023-07-31T09:01:27;99370.91;;;15.29;100.00
31681;BME280;18281;51.364;9.566;2023-07-31T09:03:54;99367.88;;;15.34;100.00
31681;BME280;18281;51.364;9.566;2023-07-31T09:06:20;99364.56;;;15.41;100.00
31681;BME280;18281;51.364;9.566;2023-07-31T09:08:47;99372.53;;;15.20;100.00
31681;BME280;18281;51.364;9.566;2023-07-31T09:11:14;99354.66;;;15.34;100.00
31681;BME280;18281;51.364;9.566;2023-07-31T09:13:39;99358.88;;;15.46;100.00
31681;BME280;18281;51.364;9.566;2023-07-31T09:16:05;99357.50;;;15.52;100.00
31681;BME280;18281;51.364;9.566;2023-07-31T09:18:30;99369.19;;;15.49;100.00
31681;BME280;18281;51.364;9.566;2023-07-31T09:23:27;99356.94;;;15.48;100.00
31681;BME280;18281;51.364;9.566;2023-07-31T09:26:04;99356.38;;;15.45;100.00
31681;BME280;18281;51.364;9.566;2023-07-31T09:28:31;99349.19;;;15.25;100.00
31681;BME280;18281;51.364;9.566;2023-07-31T09:30:56;99341.47;;;15.53;100.00
31681;BME280;18281;51.364;9.566;2023-07-31T09:33:21;99334.25;;;15.55;100.00
31681;BME280;18281;51.364;9.566;2023-07-31T09:35:47;99337.72;;;15.46;100.00
31681;BME280;18281;51.364;9.566;2023-07-31T09:38:13;99333.75;;;15.31;100.00
31681;BME280;18281;51.364;9.566;2023-07-31T09:40:40;99333.94;;;15.39;100.00
31681;BME280;18281;51.364;9.566;2023-07-31T09:43:06;99334.97;;;15.26;100.00
31681;BME280;18281;51.364;9.566;2023-07-31T09:45:33;99335.75;;;15.17;100.00
31681;BME280;18281;51.364;9.566;2023-07-31T09:47:59;99342.56;;;15.10;100.00
31681;BME280;18281;51.364;9.566;2023-07-31T09:50:24;99339.94;;;15.20;100.00
31681;BME280;18281;51.364;9.566;2023-07-31T09:52:50;99338.50;;;15.37;100.00
31681;BME280;18281;51.364;9.566;2023-07-31T09:55:15;99338.44;;;15.48;100.00
31681;BME280;18281;51.364;9.566;2023-07-31T09:57:41;99338.00;;;15.53;100.00
31681;BME280;18281;51.364;9.566;2023-07-31T10:00:10;99337.06;;;15.64;100.00
31681;BME280;18281;51.364;9.566;2023-07-31T10:02:36;99325.72;;;15.73;100.00
31681;BME280;18281;51.364;9.566;2023-07-31T10:05:02;99329.19;;;15.73;100.00
31681;BME280;18281;51.364;9.566;2023-07-31T10:07:28;99320.63;;;15.60;100.00
31681;BME280;18281;51.364;9.566;2023-07-31T10:09:55;99320.13;;;15.76;100.00
31681;BME280;18281;51.364;9.566;2023-07-31T10:12:22;99319.06;;;15.57;100.00
31681;BME280;18281;51.364;9.566;2023-07-31T10:14:48;99318.81;;;15.60;100.00
31681;BME280;18281;51.364;9.566;2023-07-31T10:17:15;99315.75;;;15.65;100.00
31681;BME280;18281;51.364;9.566;2023-07-31T10:19:41;99316.44;;;15.57;100.00
31681;BME280;18281;51.364;9.566;2023-07-31T10:22:07;99310.13;;;15.70;100.00
31681;BME280;18281;51.364;9.566;2023-07-31T10:24:33;99308.31;;;15.80;100.00
31681;BME280;18281;51.364;9.566;2023-07-31T10:26:59;99299.00;;;15.86;100.00
31681;BME280;18281;51.364;9.566;2023-07-31T10:29:25;99295.78;;;15.82;100.00
31681;BME280;18281;51.364;9.566;2023-07-31T10:31:51;99303.34;;;15.97;100.00
31681;BME280;18281;51.364;9.566;2023-07-31T10:34:16;99306.41;;;16.02;100.00
31681;BME280;18281;51.364;9.566;2023-07-31T10:36:42;99298.44;;;15.82;100.00
31681;BME280;18281;51.364;9.566;2023-07-31T10:39:33;99294.97;;;15.91;100.00
31681;BME280;18281;51.364;9.566;2023-07-31T10:41:52;99295.66;;;15.93;100.00
31681;BME280;18281;51.364;9.566;2023-07-31T10:44:17;99287.13;;;15.70;100.00
31681;BME280;18281;51.364;9.566;2023-07-31T10:46:44;99291.25;;;15.63;100.00
31681;BME280;18281;51.364;9.566;2023-07-31T10:49:10;99296.94;;;15.49;100.00
31681;BME280;18281;51.364;9.566;2023-07-31T10:51:45;99296.13;;;15.68;100.00
31681;BME280;18281;51.364;9.566;2023-07-31T10:54:15;99293.13;;;15.82;100.00
31681;BME280;18281;51.364;9.566;2023-07-31T10:56:46;99285.75;;;15.96;100.00
31681;BME280;18281;51.364;9.566;2023-07-31T10:59:14;99289.09;;;15.98;100.00
31681;BME280;18281;51.364;9.566;2023-07-31T11:01:55;99276.00;;;15.86;100.00
31681;BME280;18281;51.364;9.566;2023-07-31T11:04:27;99271.56;;;15.97;100.00
31681;BME280;18281;51.364;9.566;2023-07-31T11:06:59;99276.44;;;16.01;100.00
31681;BME280;18281;51.364;9.566;2023-07-31T11:09:27;99272.50;;;15.76;100.00
31681;BME280;18281;51.364;9.566;2023-07-31T11:11:53;99270.72;;;16.06;100.00
31681;BME280;18281;51.364;9.566;2023-07-31T11:14:19;99269.88;;;15.96;100.00
31681;BME280;18281;51.364;9.566;2023-07-31T11:16:44;99267.09;;;16.07;100.00
31681;BME280;18281;51.364;9.566;2023-07-31T11:19:09;99266.38;;;15.85;100.00
31681;BME280;18281;51.364;9.566;2023-07-31T11:21:34;99256.50;;;16.17;100.00
31681;BME280;18281;51.364;9.566;2023-07-31T11:23:59;99261.66;;;15.99;100.00
31681;BME280;18281;51.364;9.566;2023-07-31T11:26:25;99257.91;;;15.91;100.00
31681;BME280;18281;51.364;9.566;2023-07-31T11:28:50;99251.47;;;15.84;100.00
31681;BME280;18281;51.364;9.566;2023-07-31T11:31:16;99254.84;;;16.06;100.00
31681;BME280;18281;51.364;9.566;2023-07-31T11:33:42;99251.63;;;16.02;100.00
31681;BME280;18281;51.364;9.566;2023-07-31T11:36:13;99254.97;;;15.85;100.00
31681;BME280;18281;51.364;9.566;2023-07-31T11:38:39;99260.81;;;15.79;100.00
31681;BME280;18281;51.364;9.566;2023-07-31T11:41:04;99256.50;;;15.87;100.00
31681;BME280;18281;51.364;9.566;2023-07-31T11:43:33;99253.56;;;16.00;100.00
31681;BME280;18281;51.364;9.566;2023-07-31T11:45:59;99243.53;;;15.84;100.00
31681;BME280;18281;51.364;9.566;2023-07-31T11:50:53;99244.66;;;15.91;100.00
31681;BME280;18281;51.364;9.566;2023-07-31T11:53:41;99243.56;;;16.04;100.00
31681;BME280;18281;51.364;9.566;2023-07-31T11:56:04;99242.16;;;16.00;100.00
31681;BME280;18281;51.364;9.566;2023-07-31T11:58:31;99237.16;;;15.97;100.00
31681;BME280;18281;51.364;9.566;2023-07-31T12:00:57;99234.50;;;16.06;100.00
31681;BME280;18281;51.364;9.566;2023-07-31T12:03:23;99236.03;;;16.09;100.00
31681;BME280;18281;51.364;9.566;2023-07-31T12:05:49;99243.97;;;15.89;100.00
31681;BME280;18281;51.364;9.566;2023-07-31T12:08:14;99243.25;;;16.07;100.00
31681;BME280;18281;51.364;9.566;2023-07-31T12:10:41;99243.25;;;16.07;100.00
31681;BME280;18281;51.364;9.566;2023-07-31T12:13:08;99233.50;;;16.17;100.00
31681;BME280;18281;51.364;9.566;2023-07-31T12:15:44;99230.72;;;16.09;100.00
31681;BME280;18281;51.364;9.566;2023-07-31T12:18:14;99234.34;;;16.08;100.00
31681;BME280;18281;51.364;9.566;2023-07-31T12:20:43;99231.28;;;16.13;100.00
31681;BME280;18281;51.364;9.566;2023-07-31T12:25:40;99221.13;;;16.18;100.00
31681;BME280;18281;51.364;9.566;2023-07-31T12:28:06;99232.94;;;16.23;100.00
31681;BME280;18281;51.364;9.566;2023-07-31T12:30:37;99233.50;;;16.17;100.00
31681;BME280;18281;51.364;9.566;2023-07-31T12:33:06;99235.88;;;16.20;100.00
31681;BME280;18281;51.364;9.566;2023-07-31T12:35:36;99237.16;;;15.97;100.00
31681;BME280;18281;51.364;9.566;2023-07-31T12:38:02;99239.94;;;16.05;100.00
31681;BME280;18281;51.364;9.566;2023-07-31T12:40:27;99229.06;;;15.88;100.00
31681;BME280;18281;51.364;9.566;2023-07-31T12:42:52;99229.91;;;15.89;100.00
31681;BME280;18281;51.364;9.566;2023-07-31T12:45:18;99235.44;;;15.76;100.00
31681;BME280;18281;51.364;9.566;2023-07-31T12:47:43;99232.78;;;15.66;100.00
31681;BME280;18281;51.364;9.566;2023-07-31T12:50:08;99231.00;;;15.86;100.00
31681;BME280;18281;51.364;9.566;2023-07-31T12:52:34;99229.34;;;15.75;100.00
31681;BME280;18281;51.364;9.566;2023-07-31T12:54:59;99227.38;;;15.77;100.00
31681;BME280;18281;51.364;9.566;2023-07-31T12:57:24;99220.84;;;16.01;100.00
31681;BME280;18281;51.364;9.566;2023-07-31T12:59:49;99221.53;;;15.93;100.00
31681;BME280;18281;51.364;9.566;2023-07-31T13:02:14;99216.22;;;15.93;100.00
31681;BME280;18281;51.364;9.566;2023-07-31T13:04:40;99213.19;;;15.88;100.00